Time;durP1;ratioP1;P1;durP2;ratioP2;P2;SDS_P1;SDS_P2;PMS_P1;PMS_P2;Temp;Humidity;BMP_temperature;BMP_pressure;BME280_temperature;BME280_humidity;BME280_pressure;Samples;Min_cycle;Max_cycle;Signal;HPM_P1;HPM_P2
2022/10/10 00:01:58;;;;;;;5.82;4.45;;;10.40;99.90;;;;;;5056381;28;20041;-66
2022/10/10 00:04:25;;;;;;;7.10;4.25;;;10.40;99.90;;;;;;5055442;28;20085;-66
2022/10/10 00:06:52;;;;;;;5.70;3.85;;;10.50;99.90;;;;;;5056487;28;20052;-66
2022/10/10 00:09:18;;;;;;;7.28;4.40;;;10.50;99.90;;;;;;5057290;28;20098;-66
2022/10/10 00:11:45;;;;;;;7.75;4.32;;;10.50;99.90;;;;;;5057072;28;20045;-66
2022/10/10 00:14:12;;;;;;;7.25;4.03;;;10.50;99.90;;;;;;5038735;28;20534;-66
2022/10/10 00:16:39;;;;;;;7.57;5.03;;;10.50;99.90;;;;;;5056408;28;20055;-66
2022/10/10 00:19:06;;;;;;;8.52;4.38;;;10.50;99.90;;;;;;5038975;28;20048;-66
2022/10/10 00:21:33;;;;;;;7.53;4.93;;;10.60;99.90;;;;;;5056621;28;20049;-66
2022/10/10 00:23:59;;;;;;;7.20;4.32;;;10.60;99.90;;;;;;5055368;28;20091;-66
2022/10/10 00:26:26;;;;;;;6.28;4.07;;;10.60;99.90;;;;;;5038802;28;20099;-66
2022/10/10 00:28:53;;;;;;;6.50;3.65;;;10.60;99.90;;;;;;5055212;28;20076;-66
2022/10/10 00:31:20;;;;;;;5.82;4.05;;;10.60;99.90;;;;;;5056128;28;20041;-66
2022/10/10 00:33:47;;;;;;;8.00;4.07;;;10.60;99.90;;;;;;5038888;28;20108;-66
2022/10/10 00:36:14;;;;;;;9.35;5.00;;;10.70;99.90;;;;;;5055848;28;20041;-66
2022/10/10 00:38:41;;;;;;;9.48;4.63;;;10.70;99.90;;;;;;5055298;28;20488;-66
2022/10/10 00:41:08;;;;;;;8.00;4.20;;;10.70;99.90;;;;;;5039222;28;20060;-66
2022/10/10 00:43:35;;;;;;;7.97;4.72;;;10.80;99.90;;;;;;5055016;28;20091;-66
2022/10/10 00:46:01;;;;;;;5.82;4.07;;;10.80;99.90;;;;;;5056311;28;20051;-66
2022/10/10 00:48:34;;;;;;;6.80;4.40;;;10.80;99.90;;;;;;5054987;28;20068;-66
2022/10/10 00:51:07;;;;;;;26.65;19.35;;;10.90;99.90;;;;;;5055687;28;20044;-66
2022/10/10 00:53:37;;;;;;;20.80;15.43;;;10.90;99.90;;;;;;5071801;28;20135;-69
2022/10/10 00:56:04;;;;;;;11.82;8.00;;;11.00;99.90;;;;;;5055423;28;20056;-65
2022/10/10 00:58:31;;;;;;;7.90;4.93;;;11.00;99.90;;;;;;5054603;28;20049;-66
2022/10/10 01:00:58;;;;;;;7.20;4.65;;;11.00;99.90;;;;;;5037834;28;20091;-65
2022/10/10 01:03:25;;;;;;;8.00;4.28;;;11.00;99.90;;;;;;5055119;28;20094;-65
2022/10/10 01:05:52;;;;;;;6.57;4.20;;;11.00;99.90;;;;;;5054267;28;20091;-65
2022/10/10 01:08:19;;;;;;;8.13;4.18;;;11.00;99.90;;;;;;5055174;28;20037;-65
2022/10/10 01:11:23;;;;;;;8.63;4.03;;;11.00;99.90;;;;;;5054714;28;20041;-65
2022/10/10 01:13:58;;;;;;;7.00;4.15;;;11.00;99.90;;;;;;5055346;28;20095;-65
2022/10/10 01:16:41;;;;;;;5.95;3.33;;;11.00;99.90;;;;;;5055799;28;20091;-65
2022/10/10 01:19:19;;;;;;;7.00;4.40;;;11.00;99.90;;;;;;5054894;28;20098;-65
2022/10/10 01:22:09;;;;;;;6.63;4.53;;;11.00;99.90;;;;;;5055580;28;20044;-65
2022/10/10 01:24:42;;;;;;;;;;;11.00;99.90;;;;;;5055352;28;20048;-65
2022/10/10 01:27:29;;;;;;;5.75;3.92;;;11.10;99.90;;;;;;5055216;28;19916;-65
2022/10/10 01:30:10;;;;;;;10.77;4.13;;;11.10;99.90;;;;;;5054994;28;20472;-65
2022/10/10 01:32:40;;;;;;;7.63;4.30;;;11.10;99.90;;;;;;5054445;28;20400;-65
2022/10/10 01:35:28;;;;;;;6.88;3.95;;;11.20;99.90;;;;;;5054054;28;20064;-65
2022/10/10 01:38:03;;;;;;;5.95;4.35;;;11.20;99.90;;;;;;5053741;28;20049;-65
2022/10/10 01:40:47;;;;;;;6.82;4.50;;;11.20;99.90;;;;;;5056128;28;20075;-66
2022/10/10 01:43:14;;;;;;;5.20;3.38;;;11.10;99.90;;;;;;5054519;28;20115;-66
2022/10/10 01:45:45;;;;;;;5.65;3.60;;;11.20;99.90;;;;;;5053688;28;20044;-65
2022/10/10 01:48:12;;;;;;;7.70;4.30;;;11.10;99.90;;;;;;5055070;28;20462;-65
2022/10/10 01:51:08;;;;;;;8.05;3.88;;;11.20;99.90;;;;;;5053641;28;20041;-65
2022/10/10 01:53:45;;;;;;;6.18;4.03;;;11.20;99.90;;;;;;5053582;28;20048;-65
2022/10/10 01:56:17;;;;;;;5.20;3.97;;;11.20;99.90;;;;;;5054389;28;20045;-66
2022/10/10 01:59:07;;;;;;;6.72;3.60;;;11.10;99.90;;;;;;5055310;28;20086;-65
2022/10/10 02:01:43;;;;;;;7.72;3.97;;;11.10;99.90;;;;;;5053532;28;20106;-66
2022/10/10 02:04:28;;;;;;;8.52;3.42;;;11.10;99.90;;;;;;5055359;28;20086;-65
2022/10/10 02:07:08;;;;;;;4.20;3.13;;;11.20;99.90;;;;;;5055084;28;20045;-65
2022/10/10 02:09:37;;;;;;;6.45;4.70;;;11.10;99.90;;;;;;5053938;28;20048;-65
2022/10/10 02:12:05;;;;;;;6.15;3.78;;;11.20;99.90;;;;;;5036532;28;20550;-66
2022/10/10 02:14:35;;;;;;;6.50;3.53;;;11.20;99.90;;;;;;5036811;28;20094;-65
2022/10/10 02:17:02;;;;;;;9.38;3.83;;;11.20;99.90;;;;;;5054063;28;20099;-65
2022/10/10 02:19:28;;;;;;;6.40;2.90;;;11.20;99.90;;;;;;5054732;28;20400;-65
2022/10/10 02:21:55;;;;;;;8.38;4.07;;;11.20;99.90;;;;;;5053113;28;20052;-65
2022/10/10 02:24:23;;;;;;;7.30;3.97;;;11.20;99.90;;;;;;5054949;28;20087;-66
2022/10/10 02:27:01;;;;;;;6.22;3.40;;;11.20;99.90;;;;;;5053755;28;20122;-65
2022/10/10 02:29:30;;;;;;;5.75;3.35;;;11.20;99.90;;;;;;5036870;28;20049;-65
2022/10/10 02:32:15;;;;;;;6.03;3.40;;;11.20;99.90;;;;;;5052685;28;20087;-65
2022/10/10 02:34:45;;;;;;;5.70;3.25;;;11.30;99.90;;;;;;5053793;28;20472;-65
2022/10/10 02:37:12;;;;;;;7.47;4.28;;;11.20;99.90;;;;;;5053569;28;20041;-65
2022/10/10 02:39:44;;;;;;;10.15;4.18;;;11.20;99.90;;;;;;5035967;28;20526;-65
2022/10/10 02:42:12;;;;;;;8.70;4.22;;;11.30;99.90;;;;;;5053319;28;20095;-65
2022/10/10 02:44:38;;;;;;;6.13;3.60;;;11.30;99.90;;;;;;5052414;28;20102;-65
2022/10/10 02:47:05;;;;;;;8.35;3.42;;;11.30;99.90;;;;;;5052617;28;20037;-65
2022/10/10 02:49:33;;;;;;;5.95;3.63;;;11.40;99.90;;;;;;5035831;28;20056;-65
2022/10/10 02:52:00;;;;;;;6.82;3.50;;;11.50;99.90;;;;;;5036070;28;20076;-65
2022/10/10 02:54:27;;;;;;;6.72;3.30;;;11.50;99.90;;;;;;5035844;28;20088;-65
2022/10/10 02:56:54;;;;;;;5.15;3.10;;;11.60;99.90;;;;;;5054164;28;20098;-65
2022/10/10 02:59:21;;;;;;;5.25;3.40;;;11.60;99.90;;;;;;5036079;28;20122;-65
2022/10/10 03:01:47;;;;;;;6.75;3.35;;;11.70;99.90;;;;;;5035723;28;20102;-65
2022/10/10 03:04:14;;;;;;;7.55;4.10;;;11.70;99.90;;;;;;5035622;28;20067;-65
2022/10/10 03:06:41;;;;;;;4.28;2.88;;;11.70;99.90;;;;;;5052101;28;20047;-65
2022/10/10 03:09:08;;;;;;;9.85;3.85;;;11.80;99.90;;;;;;5053151;28;20099;-65
2022/10/10 03:11:35;;;;;;;6.95;3.20;;;11.90;99.90;;;;;;5036061;28;20125;-65
2022/10/10 03:14:02;;;;;;;9.00;3.88;;;11.90;99.90;;;;;;5052780;28;20071;-65
2022/10/10 03:16:28;;;;;;;4.80;3.30;;;12.00;99.90;;;;;;5052220;28;20048;-65
2022/10/10 03:18:55;;;;;;;5.88;4.15;;;12.00;99.90;;;;;;5051887;28;20041;-65
2022/10/10 03:21:22;;;;;;;4.85;3.08;;;12.00;99.90;;;;;;5053599;28;20040;-65
2022/10/10 03:23:49;;;;;;;5.47;2.88;;;12.00;99.90;;;;;;5052174;28;20045;-65
2022/10/10 03:26:16;;;;;;;5.60;3.13;;;12.10;99.90;;;;;;5053258;28;20048;-65
2022/10/10 03:28:43;;;;;;;4.80;3.17;;;12.20;99.90;;;;;;5053742;28;20045;-65
2022/10/10 03:31:10;;;;;;;4.32;3.38;;;12.20;99.90;;;;;;5035533;28;20166;-65
2022/10/10 03:33:37;;;;;;;4.63;3.25;;;12.20;99.90;;;;;;5053718;28;20048;-65
2022/10/10 03:36:04;;;;;;;8.52;3.85;;;12.30;99.90;;;;;;5052854;28;20473;-65
2022/10/10 03:38:31;;;;;;;5.95;3.63;;;12.30;99.90;;;;;;5036057;28;20413;-65
2022/10/10 03:40:58;;;;;;;6.38;2.97;;;12.40;99.90;;;;;;5035456;28;20465;-65
2022/10/10 03:43:25;;;;;;;6.60;3.25;;;12.40;99.90;;;;;;5053109;28;20481;-65
2022/10/10 03:45:51;;;;;;;6.60;4.03;;;12.40;99.90;;;;;;5051583;28;20037;-65
2022/10/10 03:48:18;;;;;;;6.97;3.30;;;12.40;99.90;;;;;;5051785;28;20120;-65
2022/10/10 03:50:45;;;;;;;6.05;3.38;;;12.50;99.90;;;;;;5053564;28;20048;-65
2022/10/10 03:53:12;;;;;;;5.00;3.15;;;12.50;99.90;;;;;;5051836;28;20415;-65
2022/10/10 03:55:40;;;;;;;7.10;3.22;;;12.50;99.90;;;;;;5053251;28;20045;-65
2022/10/10 03:58:08;;;;;;;7.25;3.47;;;12.50;99.90;;;;;;5035008;28;20040;-65
2022/10/10 04:00:34;;;;;;;5.65;3.17;;;12.50;99.90;;;;;;5051725;28;20052;-65
2022/10/10 04:03:05;;;;;;;4.40;3.03;;;12.60;99.90;;;;;;5051819;28;20374;-65
2022/10/10 04:05:33;;;;;;;6.88;3.20;;;12.60;99.90;;;;;;5051770;28;20510;-65
2022/10/10 04:08:00;;;;;;;8.13;3.58;;;12.70;99.90;;;;;;5053639;28;20045;-65
2022/10/10 04:10:27;;;;;;;6.22;3.90;;;12.70;99.90;;;;;;5052969;28;20388;-66
2022/10/10 04:12:54;;;;;;;5.53;2.90;;;12.70;99.90;;;;;;5051720;28;20041;-65
2022/10/10 04:15:21;;;;;;;5.43;2.85;;;12.80;99.90;;;;;;5051664;28;20087;-65
2022/10/10 04:17:48;;;;;;;6.35;3.55;;;12.70;99.90;;;;;;5052491;28;20045;-65
2022/10/10 04:20:15;;;;;;;7.15;3.03;;;12.70;99.90;;;;;;5053855;28;20119;-66
2022/10/10 04:22:42;;;;;;;5.25;3.60;;;12.70;99.90;;;;;;5052787;28;20087;-66
2022/10/10 04:25:10;;;;;;;5.70;3.28;;;12.80;99.90;;;;;;5051226;28;20067;-65
2022/10/10 04:27:37;;;;;;;8.30;3.25;;;12.80;99.90;;;;;;5052774;28;20060;-65
2022/10/10 04:30:04;;;;;;;5.63;3.55;;;12.80;99.90;;;;;;5035012;28;20369;-65
2022/10/10 04:32:31;;;;;;;6.15;2.72;;;12.80;99.90;;;;;;5052578;28;20205;-65
2022/10/10 04:34:58;;;;;;;5.35;3.08;;;12.80;99.90;;;;;;5051953;28;20041;-65
2022/10/10 04:37:25;;;;;;;6.13;3.55;;;12.90;99.90;;;;;;5053067;28;20048;-66
2022/10/10 04:39:52;;;;;;;5.72;2.92;;;12.90;99.90;;;;;;5052583;28;20044;-65
2022/10/10 04:42:19;;;;;;;5.68;3.58;;;12.90;99.90;;;;;;5053123;28;20469;-65
2022/10/10 04:44:45;;;;;;;4.85;2.92;;;12.90;99.90;;;;;;5054972;28;20049;-65
2022/10/10 04:47:12;;;;;;;5.63;2.78;;;13.00;99.90;;;;;;5054948;28;20380;-65
2022/10/10 04:49:40;;;;;;;5.45;2.80;;;13.00;99.90;;;;;;5038002;28;20038;-65
2022/10/10 04:52:10;;;;;;;5.50;2.97;;;13.00;99.90;;;;;;5038310;28;20472;-65
2022/10/10 04:54:37;;;;;;;9.55;3.83;;;13.00;99.90;;;;;;5054921;28;20389;-66
2022/10/10 04:57:04;;;;;;;6.47;3.00;;;13.10;99.90;;;;;;5056173;28;20083;-65
2022/10/10 04:59:31;;;;;;;8.30;3.28;;;13.10;99.90;;;;;;5055251;28;20090;-66
2022/10/10 05:01:58;;;;;;;5.47;2.55;;;13.20;99.90;;;;;;5056349;28;20041;-65
2022/10/10 05:04:27;;;;;;;3.88;2.33;;;13.30;99.90;;;;;;5055358;28;20067;-65
2022/10/10 05:06:54;;;;;;;7.45;2.90;;;13.30;99.90;;;;;;5054971;28;20376;-65
2022/10/10 05:09:21;;;;;;;6.03;2.63;;;13.40;99.90;;;;;;5054111;28;20041;-65
2022/10/10 05:11:48;;;;;;;4.05;2.67;;;13.50;99.90;;;;;;5037943;28;20412;-65
2022/10/10 05:14:15;;;;;;;6.93;2.95;;;13.50;99.90;;;;;;5054066;28;20048;-65
2022/10/10 05:16:42;;;;;;;7.50;3.03;;;13.50;99.90;;;;;;5054323;28;20427;-66
2022/10/10 05:19:08;;;;;;;8.13;2.92;;;13.60;99.90;;;;;;5037810;28;20037;-65
2022/10/10 05:21:35;;;;;;;4.32;2.90;;;13.60;99.90;;;;;;5053942;28;20083;-65
2022/10/10 05:24:02;;;;;;;7.18;2.78;;;13.70;99.90;;;;;;5056295;28;20045;-65
2022/10/10 05:26:29;;;;;;;5.68;3.55;;;13.70;99.90;;;;;;5038128;28;20152;-65
2022/10/10 05:28:56;;;;;;;7.75;3.20;;;13.70;99.90;;;;;;5054206;28;20037;-65
2022/10/10 05:31:23;;;;;;;4.72;2.83;;;13.70;99.90;;;;;;5053952;28;20550;-65
2022/10/10 05:33:50;;;;;;;5.65;3.22;;;13.70;99.90;;;;;;5054929;28;20045;-65
2022/10/10 05:36:17;;;;;;;7.05;3.70;;;13.80;99.90;;;;;;5037920;28;20350;-65
2022/10/10 05:38:43;;;;;;;6.65;3.45;;;13.80;99.90;;;;;;5055819;28;20045;-65
2022/10/10 05:41:11;;;;;;;6.43;2.80;;;13.80;99.90;;;;;;5037102;28;20049;-66
2022/10/10 05:43:38;;;;;;;5.03;3.10;;;13.80;99.90;;;;;;5055683;28;20095;-65
2022/10/10 05:46:05;;;;;;;6.13;3.40;;;13.80;99.90;;;;;;5054477;28;20525;-65
2022/10/10 05:48:32;;;;;;;6.60;2.60;;;13.80;99.90;;;;;;5054805;28;20041;-65
2022/10/10 05:50:59;;;;;;;6.63;2.90;;;13.80;99.90;;;;;;5055026;28;20469;-66
2022/10/10 05:53:27;;;;;;;5.07;2.55;;;13.80;99.90;;;;;;5053579;28;20076;-66
2022/10/10 05:55:54;;;;;;;9.60;3.55;;;13.80;99.90;;;;;;5052384;28;20045;-65
2022/10/10 05:58:20;;;;;;;6.35;2.80;;;13.80;99.90;;;;;;5054390;28;20083;-65
2022/10/10 06:00:47;;;;;;;8.95;3.28;;;13.80;99.90;;;;;;5054360;28;20049;-65
2022/10/10 06:03:16;;;;;;;6.32;3.45;;;13.80;99.90;;;;;;5053508;28;20530;-65
2022/10/10 06:05:44;;;;;;;6.45;3.42;;;13.80;99.90;;;;;;5053052;28;20132;-65
2022/10/10 06:08:11;;;;;;;9.52;3.67;;;13.80;99.90;;;;;;5053262;28;20049;-65
2022/10/10 06:10:40;;;;;;;13.30;4.55;;;13.80;99.90;;;;;;5036835;28;20052;-65
2022/10/10 06:13:08;;;;;;;8.07;4.43;;;13.80;99.90;;;;;;5052979;28;20087;-65
2022/10/10 06:15:35;;;;;;;16.98;10.65;;;13.70;99.90;;;;;;5053269;28;20044;-66
2022/10/10 06:18:02;;;;;;;88.97;70.88;;;13.60;99.90;;;;;;5053289;28;20056;-65
2022/10/10 06:20:29;;;;;;;17.83;13.50;;;13.60;99.90;;;;;;5053940;28;20113;-65
2022/10/10 06:22:56;;;;;;;14.05;7.57;;;13.60;99.90;;;;;;5053687;28;20049;-66
2022/10/10 06:25:23;;;;;;;8.88;6.05;;;13.50;99.90;;;;;;5054805;28;20461;-67
2022/10/10 06:28:06;;;;;;;13.93;6.88;;;13.40;99.90;;;;;;5053896;28;20045;-68
2022/10/10 06:30:36;;;;;;;14.63;6.30;;;13.30;99.90;;;;;;5053942;28;20441;-67
2022/10/10 06:33:03;;;;;;;10.32;5.18;;;13.20;99.90;;;;;;5054001;28;20053;-68
2022/10/10 06:35:29;;;;;;;11.93;6.20;;;13.10;99.90;;;;;;5036486;28;20499;-68
2022/10/10 06:37:56;;;;;;;56.40;40.97;;;13.10;99.90;;;;;;5052562;28;20392;-66
2022/10/10 06:40:23;;;;;;;48.58;38.50;;;13.00;99.90;;;;;;5052461;28;20076;-65
2022/10/10 06:42:50;;;;;;;13.90;9.88;;;13.00;99.90;;;;;;5054205;28;20048;-66
2022/10/10 06:45:17;;;;;;;16.42;7.38;;;13.00;99.90;;;;;;5052410;28;20171;-67
2022/10/10 06:47:44;;;;;;;12.85;6.63;;;13.00;99.90;;;;;;5053914;28;20472;-67
2022/10/10 06:50:11;;;;;;;9.63;5.95;;;13.00;99.90;;;;;;5053823;28;20045;-67
2022/10/10 06:52:39;;;;;;;11.00;6.22;;;13.00;99.90;;;;;;5052325;28;20493;-67
2022/10/10 06:55:07;;;;;;;8.77;5.63;;;13.00;99.90;;;;;;5036943;28;20411;-68
2022/10/10 06:57:33;;;;;;;60.38;51.72;;;13.00;99.90;;;;;;5052630;28;20084;-67
2022/10/10 07:00:00;;;;;;;50.08;41.90;;;13.00;99.90;;;;;;5036345;28;20057;-69
2022/10/10 07:02:27;;;;;;;15.38;10.27;;;12.90;99.90;;;;;;5052643;28;20036;-69
2022/10/10 07:04:54;;;;;;;8.05;6.05;;;13.00;99.90;;;;;;5035762;28;20041;-68
2022/10/10 07:07:21;;;;;;;10.65;6.80;;;12.90;99.90;;;;;;5035936;28;20049;-68
2022/10/10 07:09:48;;;;;;;7.80;6.10;;;12.90;99.90;;;;;;5035941;28;20086;-68
2022/10/10 07:12:15;;;;;;;6.78;5.18;;;12.80;99.90;;;;;;5036594;28;20095;-68
2022/10/10 07:14:42;;;;;;;7.82;3.30;;;12.70;99.90;;;;;;5051736;28;20052;-69
2022/10/10 07:17:08;;;;;;;6.88;3.33;;;12.50;99.90;;;;;;5052360;28;20045;-68
2022/10/10 07:19:36;;;;;;;4.97;2.42;;;12.30;99.90;;;;;;5036803;28;20373;-67
2022/10/10 07:22:03;;;;;;;13.52;8.98;;;12.00;99.90;;;;;;5052380;28;20106;-67
2022/10/10 07:24:30;;;;;;;6.57;2.97;;;11.80;99.90;;;;;;5053199;28;20094;-68
2022/10/10 07:26:57;;;;;;;10.60;3.05;;;11.60;99.90;;;;;;5052710;28;20412;-67
2022/10/10 07:29:32;;;;;;;10.52;3.72;;;11.50;99.90;;;;;;5052426;28;20067;-69
2022/10/10 07:31:59;;;;;;;7.22;2.47;;;11.40;99.90;;;;;;5035923;28;20099;-67
2022/10/10 07:34:26;;;;;;;9.27;2.58;;;11.40;99.90;;;;;;5053129;28;20041;-69
2022/10/10 07:36:52;;;;;;;9.38;2.63;;;11.30;99.90;;;;;;5036492;28;20053;-67
2022/10/10 07:39:20;;;;;;;8.07;2.75;;;11.30;99.90;;;;;;5051969;28;20045;-68
2022/10/10 07:41:48;;;;;;;12.30;2.80;;;11.20;99.90;;;;;;5035688;28;20435;-68
2022/10/10 07:44:15;;;;;;;6.55;2.92;;;11.20;99.90;;;;;;5052426;28;20095;-67
2022/10/10 07:46:42;;;;;;;7.60;2.88;;;11.20;99.90;;;;;;5053032;28;20381;-68
2022/10/10 07:49:09;;;;;;;6.55;3.17;;;11.30;99.90;;;;;;5035531;28;20100;-67
2022/10/10 07:51:36;;;;;;;8.73;2.75;;;11.20;99.90;;;;;;5052044;28;20057;-66
2022/10/10 07:54:03;;;;;;;7.82;2.38;;;11.20;99.90;;;;;;5052260;28;20044;-66
2022/10/10 07:56:30;;;;;;;7.30;2.53;;;11.10;99.90;;;;;;5051592;28;20045;-66
2022/10/10 07:58:57;;;;;;;7.90;2.97;;;11.00;99.90;;;;;;5035471;28;20044;-66
2022/10/10 08:01:24;;;;;;;9.52;2.58;;;10.90;99.90;;;;;;5052143;28;20049;-67
2022/10/10 08:03:51;;;;;;;8.18;2.53;;;10.80;99.90;;;;;;5052815;28;20067;-69
2022/10/10 08:06:18;;;;;;;11.88;2.45;;;10.70;99.90;;;;;;5051779;28;20074;-66
2022/10/10 08:08:47;;;;;;;10.93;3.20;;;10.60;99.90;;;;;;5051920;28;20049;-67
2022/10/10 08:11:18;;;;;;;11.57;3.42;;;10.50;99.90;;;;;;5036105;28;20048;-67
2022/10/10 08:13:44;;;;;;;13.60;3.88;;;10.50;99.90;;;;;;5051511;28;20550;-69
2022/10/10 08:16:11;;;;;;;37.42;24.80;;;10.50;99.90;;;;;;5051880;28;20045;-69
2022/10/10 08:18:38;;;;;;;11.05;4.20;;;10.50;99.90;;;;;;5054170;28;20044;-70
2022/10/10 08:21:10;;;;;;;12.57;3.45;;;10.50;99.90;;;;;;5038891;28;20053;-68
2022/10/10 08:23:37;;;;;;;9.05;3.42;;;10.60;99.90;;;;;;5056075;28;20056;-68
2022/10/10 08:26:06;;;;;;;6.72;2.28;;;10.60;99.90;;;;;;5057418;28;20052;-67
2022/10/10 08:28:33;;;;;;;12.27;3.80;;;10.60;99.90;;;;;;5055154;28;20037;-67
2022/10/10 08:31:07;;;;;;;16.13;3.35;;;10.70;99.90;;;;;;5055005;28;20056;-67
2022/10/10 08:33:34;;;;;;;7.18;2.00;;;10.70;99.90;;;;;;5055608;28;20520;-68
2022/10/10 08:36:09;;;;;;;7.63;2.47;;;10.70;99.90;;;;;;5055141;28;20370;-68
2022/10/10 08:38:36;;;;;;;9.77;2.22;;;10.70;99.90;;;;;;5055005;28;20446;-69
2022/10/10 08:41:43;;;;;;;9.32;3.08;;;10.80;99.90;;;;;;5038896;28;20473;-69
2022/10/10 08:44:28;;;;;;;9.95;3.17;;;10.80;99.90;;;;;;5055082;28;20118;-68
2022/10/10 08:47:21;;;;;;;9.65;3.10;;;10.80;99.90;;;;;;5056334;28;20469;-68
2022/10/10 08:50:00;;;;;;;13.02;2.72;;;10.90;99.90;;;;;;5054729;28;20091;-73
2022/10/10 08:52:27;;;;;;;8.93;3.35;;;10.90;99.90;;;;;;5055531;28;20068;-73
2022/10/10 08:54:54;;;;;;;9.20;3.17;;;11.00;99.90;;;;;;5055942;28;20071;-74
2022/10/10 08:57:59;;;;;;;;;;;11.10;99.90;;;;;;5039192;28;20080;-74
2022/10/10 09:00:28;;;;;;;5.07;1.85;;;11.10;99.90;;;;;;5073901;28;19924;-73
2022/10/10 09:02:57;;;;;;;7.82;3.00;;;11.20;99.90;;;;;;5025360;28;20045;-73
2022/10/10 09:05:42;;;;;;;6.38;1.95;;;11.20;99.90;;;;;;5038543;28;20048;-73
2022/10/10 09:08:42;;;;;;;11.27;2.75;;;11.20;99.90;;;;;;5055348;28;20045;-73
2022/10/10 09:11:18;;;;;;;8.50;2.50;;;11.30;99.90;;;;;;5056477;28;20044;-74
2022/10/10 09:14:04;;;;;;;7.53;2.55;;;11.40;99.90;;;;;;5055464;28;20139;-74
2022/10/10 09:16:39;;;;;;;8.43;2.72;;;11.60;99.90;;;;;;5055353;28;20064;-74
2022/10/10 09:19:13;;;;;;;18.30;6.85;;;11.60;99.90;;;;;;5053923;28;20077;-74
2022/10/10 09:21:44;;;;;;;7.15;2.90;;;11.70;99.90;;;;;;5055237;28;20041;-74
2022/10/10 09:24:25;;;;;;;10.70;2.70;;;11.80;99.90;;;;;;5054669;28;20473;-74
2022/10/10 09:26:56;;;;;;;9.32;2.65;;;11.90;99.90;;;;;;5055110;28;20091;-77
2022/10/10 09:29:38;;;;;;;23.92;12.93;;;11.90;99.90;;;;;;5054556;28;20045;-68
2022/10/10 09:32:08;;;;;;;8.77;3.10;;;11.90;99.90;;;;;;5053777;28;20067;-72
2022/10/10 09:34:44;;;;;;;9.25;3.67;;;11.90;99.90;;;;;;5054007;28;20104;-71
2022/10/10 09:37:17;;;;;;;9.18;2.95;;;11.80;99.90;;;;;;5056494;28;20380;-71
2022/10/10 09:40:26;;;;;;;9.02;3.08;;;11.80;99.90;;;;;;5040871;28;20068;-71
2022/10/10 09:42:53;;;;;;;11.68;2.88;;;11.80;99.90;;;;;;5054044;28;20041;-71
2022/10/10 09:45:28;;;;;;;11.32;2.95;;;11.90;99.90;;;;;;5053971;28;20048;-71
2022/10/10 09:47:55;;;;;;;9.73;4.07;;;12.10;99.90;;;;;;5037845;28;20099;-71
2022/10/10 09:50:22;;;;;;;10.05;2.60;;;12.20;99.90;;;;;;5036963;28;20485;-71
2022/10/10 09:52:49;;;;;;;9.90;3.88;;;12.30;99.90;;;;;;5036923;28;20045;-71
2022/10/10 09:55:30;;;;;;;9.50;2.75;;;12.40;99.90;;;;;;5037227;28;20380;-71
2022/10/10 09:58:00;;;;;;;10.13;3.03;;;12.50;99.90;;;;;;5053406;28;20476;-71
2022/10/10 10:00:28;;;;;;;;;;;12.60;99.90;;;;;;5054120;28;20484;-71
2022/10/10 10:03:14;;;;;;;8.77;2.60;;;12.60;99.90;;;;;;5086522;28;19916;-71
2022/10/10 10:05:44;;;;;;;9.63;2.97;;;12.60;99.90;;;;;;5053619;28;20045;-71
2022/10/10 10:08:18;;;;;;;18.23;3.40;;;12.70;99.90;;;;;;5053485;28;20052;-71
2022/10/10 10:10:45;;;;;;;15.38;3.50;;;12.60;99.90;;;;;;5053250;28;20048;-71
2022/10/10 10:13:20;;;;;;;23.63;5.20;;;12.60;99.90;;;;;;5054145;28;20048;-71
2022/10/10 10:15:49;;;;;;;8.20;3.40;;;12.60;99.90;;;;;;5053002;28;20472;-71
2022/10/10 10:18:16;;;;;;;14.15;3.60;;;12.60;99.90;;;;;;5052967;28;20419;-71
2022/10/10 10:20:44;;;;;;;14.00;3.42;;;12.50;99.90;;;;;;5054724;28;20134;-71
2022/10/10 10:23:21;;;;;;;13.02;3.13;;;12.40;99.90;;;;;;5053180;28;20473;-71
2022/10/10 10:26:05;;;;;;;10.18;3.50;;;12.50;99.90;;;;;;5054441;28;20045;-71
2022/10/10 10:28:39;;;;;;;11.57;2.97;;;12.50;99.90;;;;;;5052864;28;20048;-71
2022/10/10 10:31:19;;;;;;;8.43;2.65;;;12.40;99.90;;;;;;5052701;28;20071;-71
2022/10/10 10:33:51;;;;;;;11.50;3.33;;;12.40;99.90;;;;;;5036325;28;20045;-71
2022/10/10 10:36:34;;;;;;;12.15;3.75;;;12.40;99.90;;;;;;5052782;28;20468;-71
2022/10/10 10:39:09;;;;;;;10.93;4.25;;;12.40;99.90;;;;;;5052578;28;20044;-71
2022/10/10 10:41:45;;;;;;;14.02;3.75;;;12.40;99.90;;;;;;5052441;28;20041;-70
2022/10/10 10:44:17;;;;;;;14.75;4.45;;;12.50;99.90;;;;;;5053684;28;20118;-72
2022/10/10 10:47:02;;;;;;;11.20;4.57;;;12.60;99.90;;;;;;5053787;28;20417;-70
2022/10/10 10:49:48;;;;;;;8.30;2.53;;;12.70;99.90;;;;;;5053129;28;20053;-72
2022/10/10 10:52:17;;;;;;;8.93;3.00;;;12.80;99.90;;;;;;5053887;28;20080;-69
2022/10/10 10:54:51;;;;;;;8.30;2.88;;;12.80;99.90;;;;;;5053619;28;20083;-69
2022/10/10 10:57:31;;;;;;;8.95;2.72;;;12.90;99.90;;;;;;5053261;28;20095;-71
2022/10/10 11:00:18;;;;;;;8.88;3.53;;;13.00;99.90;;;;;;5039872;28;20053;-72
2022/10/10 11:03:35;;;;;;;12.25;2.88;;;13.00;99.90;;;;;;5039523;28;20422;-73
2022/10/10 11:07:14;;;;;;;12.68;2.38;;;13.10;99.90;;;;;;5053282;28;20127;-73
2022/10/10 11:09:56;;;;;;;12.23;3.05;;;13.10;99.90;;;;;;5052827;28;20045;-72
2022/10/10 11:12:32;;;;;;;13.93;3.65;;;13.10;99.90;;;;;;5052023;28;20103;-72
2022/10/10 11:15:20;;;;;;;10.18;3.08;;;13.20;99.90;;;;;;5035445;28;20480;-71
2022/10/10 11:18:11;;;;;;;13.43;3.25;;;13.20;99.90;;;;;;5036191;28;20526;-70
2022/10/10 11:21:14;;;;;;;12.50;2.80;;;13.20;99.90;;;;;;5051865;28;20044;-67
2022/10/10 11:24:03;;;;;;;8.45;2.60;;;13.30;99.90;;;;;;5031035;28;20050;-67
2022/10/10 11:26:36;;;;;;;10.43;2.15;;;13.40;99.90;;;;;;5051666;28;20102;-65
2022/10/10 11:29:10;;;;;;;12.73;2.97;;;13.40;99.90;;;;;;5052255;28;20041;-66
2022/10/10 11:31:40;;;;;;;11.40;3.90;;;13.40;99.90;;;;;;5051669;28;20581;-67
2022/10/10 11:34:30;;;;;;;10.60;3.00;;;13.50;99.90;;;;;;5052114;28;20225;-66
2022/10/10 11:36:59;;;;;;;;;;;13.50;99.90;;;;;;5053453;28;20041;-65
2022/10/10 11:39:39;;;;;;;6.78;2.80;;;13.60;99.90;;;;;;5053299;28;20330;-66
2022/10/10 11:42:20;;;;;;;7.65;2.40;;;13.60;99.90;;;;;;5035622;28;20465;-66
2022/10/10 11:44:53;;;;;;;10.43;3.10;;;13.60;99.90;;;;;;5052203;28;20049;-64
2022/10/10 11:47:24;;;;;;;7.03;2.20;;;13.70;99.90;;;;;;5053694;28;20083;-65
2022/10/10 11:50:00;;;;;;;8.18;2.70;;;13.70;99.90;;;;;;5035011;28;20431;-69
2022/10/10 11:52:33;;;;;;;10.93;4.80;;;13.70;99.90;;;;;;5052873;28;20041;-65
2022/10/10 11:55:37;;;;;;;34.70;23.65;;;13.70;99.90;;;;;;5055953;28;20075;-67
2022/10/10 11:58:04;;;;;;;8.30;3.25;;;13.70;99.90;;;;;;5057023;28;20045;-67
2022/10/10 12:00:43;;;;;;;5.57;2.58;;;13.80;99.90;;;;;;5056683;28;20049;-66
2022/10/10 12:03:10;;;;;;;9.05;3.00;;;13.70;99.90;;;;;;5055655;28;20048;-65
2022/10/10 12:05:39;;;;;;;7.15;2.22;;;13.70;99.90;;;;;;5056537;28;20083;-65
2022/10/10 12:08:19;;;;;;;6.45;3.20;;;13.70;99.90;;;;;;5039517;28;20098;-65
2022/10/10 12:10:50;;;;;;;7.60;2.53;;;13.80;99.90;;;;;;5055494;28;20041;-66
2022/10/10 12:13:23;;;;;;;7.38;3.08;;;13.80;99.90;;;;;;5056804;28;20099;-64
2022/10/10 12:15:51;;;;;;;7.53;2.05;;;13.80;99.90;;;;;;5055828;28;20056;-65
2022/10/10 12:18:46;;;;;;;4.80;1.75;;;13.90;99.90;;;;;;5055857;28;20044;-65
2022/10/10 12:21:17;;;;;;;6.38;2.38;;;14.00;99.90;;;;;;5044949;28;20044;-65
2022/10/10 12:24:10;;;;;;;8.68;2.40;;;14.00;99.90;;;;;;5039389;28;20065;-66
2022/10/10 12:26:52;;;;;;;5.70;2.05;;;14.00;99.90;;;;;;5039635;28;20048;-67
2022/10/10 12:29:38;;;;;;;4.93;2.30;;;14.00;99.90;;;;;;5057086;28;20130;-67
2022/10/10 12:32:16;;;;;;;8.27;2.75;;;14.10;99.90;;;;;;5039040;28;20061;-67
2022/10/10 12:34:56;;;;;;;9.50;1.95;;;14.20;99.90;;;;;;5056367;28;20081;-67
2022/10/10 12:37:27;;;;;;;6.85;2.90;;;14.20;99.90;;;;;;5055228;28;20076;-66
2022/10/10 12:40:06;;;;;;;7.32;2.17;;;14.30;99.90;;;;;;5056078;28;20053;-65
2022/10/10 12:42:36;;;;;;;;;;;14.30;99.90;;;;;;5056816;28;20059;-64
2022/10/10 12:45:23;;;;;;;;;;;14.30;99.90;;;;;;5056438;28;20364;-66
2022/10/10 12:47:49;;;;;;;7.85;2.95;;;14.20;99.90;;;;;;5055151;28;19916;-66
2022/10/10 12:50:37;;;;;;;8.35;2.95;;;14.30;99.90;;;;;;5055375;28;20076;-64
2022/10/10 12:53:15;;;;;;;9.27;1.77;;;14.40;99.90;;;;;;5054892;28;20056;-65
2022/10/10 12:55:46;;;;;;;7.22;2.53;;;14.40;99.90;;;;;;5055534;28;20048;-65
2022/10/10 12:58:23;;;;;;;13.20;2.35;;;14.50;99.90;;;;;;5055774;28;20044;-65
2022/10/10 13:00:55;;;;;;;6.47;2.78;;;14.50;99.90;;;;;;5038348;28;20048;-66
2022/10/10 13:03:31;;;;;;;7.18;2.72;;;14.50;99.90;;;;;;5036593;28;20048;-66
2022/10/10 13:06:03;;;;;;;9.60;2.65;;;14.50;99.90;;;;;;5055360;28;20124;-65
2022/10/10 13:08:30;;;;;;;6.35;1.92;;;14.50;99.90;;;;;;5037093;28;20106;-65
2022/10/10 13:11:03;;;;;;;6.47;2.30;;;14.50;99.90;;;;;;5054999;28;20146;-65